createdAt,value
2018-06-12T00:00:36.575Z,73.32
2018-06-12T00:01:41.160Z,73.73
2018-06-12T00:02:46.934Z,73.53
2018-06-12T00:03:51.431Z,73.23
2018-06-12T00:04:56.655Z,73.60
2018-06-12T00:06:01.487Z,73.63
2018-06-12T00:07:06.272Z,73.16
2018-06-12T00:08:11.446Z,73.58
2018-06-12T00:09:17.547Z,73.62
2018-06-12T00:10:22.426Z,73.46
2018-06-12T00:11:26.956Z,73.41
2018-06-12T00:12:31.789Z,72.99
2018-06-12T00:13:36.544Z,72.87
2018-06-12T00:14:41.099Z,73.02
2018-06-12T00:15:45.714Z,73.15
2018-06-12T00:16:50.248Z,73.09
2018-06-12T00:17:55.373Z,72.65
2018-06-12T00:19:01.281Z,72.74
2018-06-12T00:20:05.775Z,72.30
2018-06-12T00:21:10.310Z,72.28
2018-06-12T00:22:14.885Z,72.81
2018-06-12T00:23:20.479Z,72.72
2018-06-12T00:24:25.427Z,72.50
2018-06-12T00:25:29.950Z,72.34
2018-06-12T00:26:35.357Z,72.28
2018-06-12T00:27:40.433Z,72.59
2018-06-12T00:28:44.986Z,72.70
2018-06-12T00:29:49.509Z,72.41
2018-06-12T00:30:54.352Z,72.99
2018-06-12T00:32:00.462Z,72.31
2018-06-12T00:33:05.589Z,73.19
2018-06-12T00:34:10.110Z,72.75
2018-06-12T00:35:14.637Z,72.25
2018-06-12T00:36:19.133Z,72.30
2018-06-12T00:37:25.362Z,72.20
2018-06-12T00:38:31.397Z,72.67
2018-06-12T00:39:35.886Z,72.88
2018-06-12T00:40:43.348Z,72.71
2018-06-12T00:41:49.479Z,72.60
2018-06-12T00:42:54.067Z,72.84
2018-06-12T00:43:59.931Z,72.59
2018-06-12T00:45:06.973Z,73.12
2018-06-12T00:46:11.524Z,72.37
2018-06-12T00:47:16.057Z,72.24
2018-06-12T00:48:20.621Z,72.19
2018-06-12T00:49:25.126Z,72.18
2018-06-12T00:50:29.960Z,72.26
2018-06-12T00:51:34.570Z,72.17
2018-06-12T00:52:39.481Z,72.19
2018-06-12T00:53:44.003Z,71.95
2018-06-12T00:54:48.547Z,72.20
2018-06-12T00:55:53.087Z,72.05
2018-06-12T00:57:03.180Z,72.37
2018-06-12T00:58:07.669Z,71.96
2018-06-12T00:59:12.197Z,72.46
2018-06-12T01:00:16.757Z,71.95
2018-06-12T01:01:21.302Z,72.30
2018-06-12T01:02:25.838Z,72.30
2018-06-12T01:03:30.735Z,71.84
2018-06-12T01:04:35.300Z,72.54
2018-06-12T01:05:39.922Z,72.24
2018-06-12T01:06:44.453Z,71.90
2018-06-12T01:07:49.083Z,72.13
2018-06-12T01:08:54.178Z,72.27
2018-06-12T01:09:59.023Z,72.12
2018-06-12T01:11:03.648Z,72.05
2018-06-12T01:12:09.246Z,71.84
2018-06-12T01:13:16.720Z,71.74
2018-06-12T01:14:23.392Z,71.72
2018-06-12T01:15:28.416Z,72.00
2018-06-12T01:16:33.371Z,71.79
2018-06-12T01:17:38.025Z,71.83
2018-06-12T01:18:44.348Z,72.00
2018-06-12T01:19:48.904Z,71.63
2018-06-12T01:20:53.467Z,71.49
2018-06-12T01:21:58.656Z,71.40
2018-06-12T01:23:03.809Z,71.65
2018-06-12T01:24:08.396Z,71.84
2018-06-12T01:25:15.155Z,71.77
2018-06-12T01:26:19.901Z,71.35
2018-06-12T01:27:24.429Z,71.46
2018-06-12T01:28:28.953Z,71.56
2018-06-12T01:29:33.801Z,71.87
2018-06-12T01:30:39.354Z,71.82
2018-06-12T01:31:44.677Z,71.58
2018-06-12T01:32:49.278Z,72.09
2018-06-12T01:33:54.600Z,72.00
2018-06-12T01:35:00.014Z,71.97
2018-06-12T01:36:04.840Z,71.88
2018-06-12T01:37:09.345Z,71.88
2018-06-12T01:38:13.878Z,72.27
2018-06-12T01:39:18.390Z,72.10
2018-06-12T01:40:22.930Z,72.13
2018-06-12T01:41:27.472Z,72.26
2018-06-12T01:42:32.293Z,72.23
2018-06-12T01:43:37.370Z,72.37
2018-06-12T01:44:42.530Z,72.62
2018-06-12T01:45:47.091Z,72.64
2018-06-12T01:46:51.605Z,72.38
2018-06-12T01:47:56.156Z,72.20
2018-06-12T01:49:00.949Z,72.52
2018-06-12T01:50:05.528Z,72.25
2018-06-12T01:51:10.311Z,72.13
2018-06-12T01:52:14.869Z,72.44
2018-06-12T01:53:19.367Z,72.97
2018-06-12T01:54:24.532Z,72.98
2018-06-12T01:55:29.890Z,73.46
2018-06-12T01:56:34.418Z,73.50
2018-06-12T01:57:38.923Z,73.55
2018-06-12T01:58:43.453Z,73.51
2018-06-12T01:59:47.998Z,73.43
2018-06-12T02:00:52.588Z,73.43
2018-06-12T02:01:57.408Z,73.84
2018-06-12T02:03:01.907Z,73.80
2018-06-12T02:04:06.470Z,73.59
2018-06-12T02:05:11.023Z,73.74
2018-06-12T02:06:15.558Z,73.81
2018-06-12T02:07:20.081Z,74.07
2018-06-12T02:08:24.907Z,73.83
2018-06-12T02:09:29.465Z,73.76
2018-06-12T02:10:33.948Z,73.74
2018-06-12T02:11:38.582Z,73.91
2018-06-12T02:12:43.082Z,74.14
2018-06-12T02:13:47.655Z,74.23
2018-06-12T02:14:52.595Z,74.33
2018-06-12T02:15:57.143Z,74.29
2018-06-12T02:17:02.219Z,74.23
2018-06-12T02:18:06.721Z,74.37
2018-06-12T02:19:11.193Z,74.00
2018-06-12T02:20:15.724Z,73.71
2018-06-12T02:21:20.536Z,74.33
2018-06-12T02:22:25.075Z,74.15
2018-06-12T02:23:29.621Z,74.11
2018-06-12T02:24:34.162Z,74.47
2018-06-12T02:25:38.750Z,74.29
2018-06-12T02:26:43.300Z,74.29
2018-06-12T02:27:48.169Z,74.43
2018-06-12T02:28:52.722Z,74.89
2018-06-12T02:29:57.219Z,75.09
2018-06-12T02:31:01.789Z,74.94
2018-06-12T02:32:06.336Z,74.54
2018-06-12T02:33:10.865Z,74.71
2018-06-12T02:34:15.746Z,74.58
2018-06-12T02:35:20.261Z,74.37
2018-06-12T02:36:24.792Z,74.61
2018-06-12T02:37:29.285Z,74.64
2018-06-12T02:38:33.818Z,74.43
2018-06-12T02:39:38.388Z,74.41
2018-06-12T02:40:43.167Z,74.45
2018-06-12T02:41:47.707Z,74.80
2018-06-12T02:42:52.202Z,75.13
2018-06-12T02:43:56.704Z,74.97
2018-06-12T02:45:02.298Z,75.32
2018-06-12T02:46:07.403Z,75.48
2018-06-12T02:47:12.184Z,75.48
2018-06-12T02:48:17.784Z,74.91
2018-06-12T02:49:23.013Z,75.31
2018-06-12T02:50:28.156Z,75.31
2018-06-12T02:51:32.779Z,75.08
2018-06-12T02:52:37.889Z,75.24
2018-06-12T02:53:42.499Z,75.43
2018-06-12T02:54:47.118Z,75.47
2018-06-12T02:55:57.130Z,75.51
2018-06-12T02:57:01.748Z,75.63
2018-06-12T02:58:07.091Z,75.74
2018-06-12T02:59:11.877Z,75.80
2018-06-12T03:00:17.130Z,75.66
2018-06-12T03:01:21.668Z,75.69
2018-06-12T03:02:26.536Z,75.56
2018-06-12T03:03:31.102Z,75.82
2018-06-12T03:04:37.199Z,76.16
2018-06-12T03:05:42.029Z,75.61
2018-06-12T03:06:46.580Z,75.74
2018-06-12T03:07:51.375Z,75.76
2018-06-12T03:08:55.993Z,75.81
2018-06-12T03:10:00.479Z,76.21
2018-06-12T03:11:04.983Z,75.97
2018-06-12T03:12:09.941Z,76.52
2018-06-12T03:13:15.232Z,76.26
2018-06-12T03:14:19.740Z,76.46
2018-06-12T03:15:24.277Z,75.86
2018-06-12T03:16:28.857Z,76.32
2018-06-12T03:17:33.621Z,76.55
2018-06-12T03:18:38.448Z,76.60
2018-06-12T03:19:42.958Z,76.75
2018-06-12T03:20:47.730Z,76.93
2018-06-12T03:21:52.357Z,76.53
2018-06-12T03:22:57.060Z,76.45
2018-06-12T03:24:01.733Z,75.93
2018-06-12T03:25:09.696Z,76.47
2018-06-12T03:26:14.573Z,76.17
2018-06-12T03:27:19.196Z,76.27
2018-06-12T03:28:23.819Z,75.91
2018-06-12T03:29:28.703Z,76.01
2018-06-12T03:30:33.465Z,75.54
2018-06-12T03:31:39.372Z,75.77
2018-06-12T03:32:43.861Z,75.98
2018-06-12T03:33:48.399Z,75.83
2018-06-12T03:34:53.062Z,75.77
2018-06-12T03:35:57.653Z,76.14
2018-06-12T03:37:02.331Z,75.68
2018-06-12T03:38:07.259Z,75.87
2018-06-12T03:39:11.849Z,76.02
2018-06-12T03:40:16.510Z,76.09
2018-06-12T03:41:22.042Z,76.06
2018-06-12T03:42:26.666Z,75.92
2018-06-12T03:43:32.672Z,76.18
2018-06-12T03:44:38.201Z,75.86
2018-06-12T03:45:42.837Z,76.21
2018-06-12T03:46:47.574Z,76.26
2018-06-12T03:47:52.353Z,75.93
2018-06-12T03:48:57.733Z,76.36
2018-06-12T03:50:02.812Z,76.09
2018-06-12T03:51:07.612Z,75.85
2018-06-12T03:52:12.230Z,75.91
2018-06-12T03:53:17.740Z,75.95
2018-06-12T03:54:22.404Z,76.09
2018-06-12T03:55:27.086Z,76.45
2018-06-12T03:56:32.062Z,76.17
2018-06-12T03:57:36.751Z,76.18
2018-06-12T03:58:41.365Z,76.27
2018-06-12T03:59:46.016Z,75.98
2018-06-12T04:00:50.730Z,75.76
2018-06-12T04:01:55.453Z,75.89
2018-06-12T04:03:01.240Z,75.95
2018-06-12T04:04:06.008Z,75.86
2018-06-12T04:05:10.684Z,75.92
2018-06-12T04:06:15.386Z,75.67
2018-06-12T04:07:20.075Z,75.59
2018-06-12T04:08:24.705Z,75.75
2018-06-12T04:09:29.656Z,75.96
2018-06-12T04:10:34.383Z,75.58
2018-06-12T04:11:39.931Z,75.96
2018-06-12T04:12:44.542Z,75.84
2018-06-12T04:13:49.185Z,75.58
2018-06-12T04:14:54.845Z,75.77
2018-06-12T04:15:59.796Z,76.29
2018-06-12T04:17:06.525Z,75.60
2018-06-12T04:18:11.467Z,75.73
2018-06-12T04:19:16.104Z,75.92
2018-06-12T04:20:20.760Z,76.24
2018-06-12T04:21:25.461Z,75.92
2018-06-12T04:22:30.389Z,76.53
2018-06-12T04:23:35.021Z,76.41
2018-06-12T04:24:39.697Z,76.42
2018-06-12T04:25:45.229Z,76.11
2018-06-12T04:26:49.758Z,75.94
2018-06-12T04:27:54.275Z,75.78
2018-06-12T04:28:59.201Z,75.79
2018-06-12T04:30:03.730Z,75.48
2018-06-12T04:31:08.560Z,75.74
2018-06-12T04:32:13.210Z,75.32
2018-06-12T04:33:17.849Z,75.61
2018-06-12T04:34:22.462Z,75.33
2018-06-12T04:35:27.402Z,75.38
2018-06-12T04:36:32.045Z,75.78
2018-06-12T04:37:36.700Z,75.29
2018-06-12T04:38:42.325Z,75.27
2018-06-12T04:39:46.996Z,75.77
2018-06-12T04:40:51.636Z,75.37
2018-06-12T04:41:56.598Z,74.89
2018-06-12T04:43:01.290Z,75.11
2018-06-12T04:44:05.957Z,75.40
2018-06-12T04:45:10.609Z,75.40
2018-06-12T04:46:15.321Z,75.12
2018-06-12T04:47:20.450Z,75.41
2018-06-12T04:48:25.422Z,75.38
2018-06-12T04:49:30.069Z,75.27
2018-06-12T04:50:34.701Z,75.21
2018-06-12T04:51:39.344Z,75.39
2018-06-12T04:52:44.171Z,75.02
2018-06-12T04:53:48.848Z,75.48
2018-06-12T04:54:53.782Z,75.15
2018-06-12T04:55:59.700Z,75.67
2018-06-12T04:57:04.357Z,75.21
2018-06-12T04:58:09.050Z,75.20
2018-06-12T04:59:13.717Z,75.35
2018-06-12T05:00:18.582Z,75.45
2018-06-12T05:01:23.707Z,75.24
2018-06-12T05:02:28.348Z,74.72
2018-06-12T05:03:33.053Z,74.81
2018-06-12T05:04:39.610Z,75.09
2018-06-12T05:05:44.410Z,74.85
2018-06-12T05:06:49.159Z,75.29
2018-06-12T05:07:54.741Z,75.34
2018-06-12T05:08:59.628Z,75.35
2018-06-12T05:10:04.284Z,74.69
2018-06-12T05:11:08.932Z,74.77
2018-06-12T05:12:13.602Z,75.28
2018-06-12T05:13:18.285Z,74.65
2018-06-12T05:14:23.459Z,74.62
2018-06-12T05:15:28.112Z,74.89
2018-06-12T05:16:32.779Z,75.03
2018-06-12T05:17:37.505Z,74.82
2018-06-12T05:18:42.469Z,75.01
2018-06-12T05:19:47.129Z,74.89
2018-06-12T05:20:52.220Z,74.44
2018-06-12T05:21:56.853Z,74.75
2018-06-12T05:23:03.218Z,75.21
2018-06-12T05:24:07.761Z,74.60
2018-06-12T05:25:12.361Z,74.66
2018-06-12T05:26:17.501Z,74.98
2018-06-12T05:27:22.209Z,75.25
2018-06-12T05:28:27.378Z,74.92
2018-06-12T05:29:31.931Z,74.78
2018-06-12T05:30:36.570Z,74.90
2018-06-12T05:31:41.135Z,74.69
2018-06-12T05:32:46.372Z,74.34
2018-06-12T05:33:51.050Z,74.93
2018-06-12T05:34:55.688Z,74.80
2018-06-12T05:36:01.074Z,74.58
2018-06-12T05:37:05.687Z,74.50
2018-06-12T05:38:10.359Z,74.48
2018-06-12T05:39:15.408Z,74.33
2018-06-12T05:40:20.136Z,74.99
2018-06-12T05:41:24.808Z,74.75
2018-06-12T05:42:32.127Z,74.91
2018-06-12T05:43:36.654Z,74.86
2018-06-12T05:44:41.232Z,74.57
2018-06-12T05:45:46.908Z,74.20
2018-06-12T05:46:52.307Z,74.57
2018-06-12T05:47:56.852Z,74.24
2018-06-12T05:49:01.615Z,74.54
2018-06-12T05:50:06.149Z,74.43
2018-06-12T05:51:10.767Z,74.09
2018-06-12T05:52:15.881Z,74.52
2018-06-12T05:53:20.674Z,74.53
2018-06-12T05:54:25.239Z,73.95
2018-06-12T05:55:29.789Z,74.13
2018-06-12T05:56:34.322Z,74.12
2018-06-12T05:57:39.028Z,73.85
2018-06-12T05:58:43.865Z,74.08
2018-06-12T05:59:48.530Z,73.86
2018-06-12T06:00:53.156Z,74.25
2018-06-12T06:01:57.819Z,74.08
2018-06-12T06:03:02.501Z,73.82
2018-06-12T06:04:07.141Z,73.81
2018-06-12T06:05:13.918Z,74.14
2018-06-12T06:06:19.025Z,73.55
2018-06-12T06:07:24.268Z,73.58
2018-06-12T06:08:28.881Z,73.43
2018-06-12T06:09:33.957Z,73.02
2018-06-12T06:10:38.691Z,73.64
2018-06-12T06:11:45.720Z,74.01
2018-06-12T06:12:50.389Z,73.93
2018-06-12T06:13:55.407Z,73.70
2018-06-12T06:15:00.041Z,73.63
2018-06-12T06:16:04.953Z,73.99
2018-06-12T06:17:09.696Z,74.17
2018-06-12T06:18:15.243Z,73.84
2018-06-12T06:19:21.945Z,73.98
2018-06-12T06:20:27.125Z,73.74
2018-06-12T06:21:31.672Z,73.37
2018-06-12T06:22:36.635Z,73.90
2018-06-12T06:23:42.742Z,73.83
2018-06-12T06:24:47.260Z,74.06
2018-06-12T06:25:51.794Z,74.07
2018-06-12T06:26:58.301Z,73.79
2018-06-12T06:28:03.557Z,74.36
2018-06-12T06:29:08.273Z,74.13
2018-06-12T06:30:12.855Z,73.98
2018-06-12T06:31:18.397Z,74.34
2018-06-12T06:32:22.983Z,73.80
2018-06-12T06:33:27.550Z,73.81
2018-06-12T06:34:32.393Z,74.41
2018-06-12T06:35:36.901Z,74.39
2018-06-12T06:36:42.499Z,73.94
2018-06-12T06:37:47.217Z,73.69
2018-06-12T06:38:53.110Z,73.76
2018-06-12T06:39:59.980Z,73.82
2018-06-12T06:41:04.952Z,73.80
2018-06-12T06:42:09.665Z,73.87
2018-06-12T06:43:14.370Z,73.79
2018-06-12T06:44:20.050Z,73.74
2018-06-12T06:45:25.756Z,73.68
2018-06-12T06:46:30.510Z,73.95
2018-06-12T06:47:35.814Z,73.64
2018-06-12T06:48:40.617Z,74.21
2018-06-12T06:49:45.407Z,73.89
2018-06-12T06:50:50.124Z,74.17
2018-06-12T06:51:54.803Z,74.22
2018-06-12T06:52:59.470Z,73.82
2018-06-12T06:54:04.455Z,73.84
2018-06-12T06:55:09.164Z,74.42
2018-06-12T06:56:15.054Z,74.37
2018-06-12T06:57:19.719Z,74.23
2018-06-12T06:58:24.448Z,73.86
2018-06-12T06:59:28.716Z,74.08
2018-06-12T07:00:34.661Z,73.92
2018-06-12T07:01:39.721Z,74.23
2018-06-12T07:02:45.352Z,74.49
2018-06-12T07:03:50.994Z,74.43
2018-06-12T07:04:55.649Z,75.08
2018-06-12T07:06:00.301Z,75.48
2018-06-12T07:07:06.534Z,75.39
2018-06-12T07:08:13.024Z,75.29
2018-06-12T07:09:17.737Z,75.60
2018-06-12T07:10:30.245Z,75.86
2018-06-12T07:11:35.057Z,75.63
2018-06-12T07:12:39.733Z,75.06
2018-06-12T07:13:46.259Z,75.59
2018-06-12T07:14:50.933Z,75.39
2018-06-12T07:15:55.645Z,75.49
2018-06-12T07:17:00.416Z,75.51
2018-06-12T07:18:05.261Z,75.62
2018-06-12T07:19:09.955Z,75.35
2018-06-12T07:20:19.235Z,75.31
2018-06-12T07:21:24.943Z,75.50
2018-06-12T07:22:34.708Z,75.83
2018-06-12T07:23:39.367Z,75.93
2018-06-12T07:24:45.742Z,75.98
2018-06-12T07:25:50.499Z,75.98
2018-06-12T07:26:55.592Z,76.48
2018-06-12T07:28:01.537Z,75.77
2018-06-12T07:29:09.776Z,76.23
2018-06-12T07:30:14.435Z,75.73
2018-06-12T07:31:19.141Z,75.92
2018-06-12T07:32:25.222Z,76.04
2018-06-12T07:33:30.353Z,76.34
2018-06-12T07:34:35.364Z,76.24
2018-06-12T07:35:40.048Z,76.84
2018-06-12T07:36:44.775Z,77.08
2018-06-12T07:37:50.214Z,77.08
2018-06-12T07:38:55.037Z,76.60
2018-06-12T07:40:01.713Z,76.63
2018-06-12T07:41:07.578Z,76.82
2018-06-12T07:42:12.409Z,76.98
2018-06-12T07:43:17.109Z,76.51
2018-06-12T07:44:21.948Z,76.57
2018-06-12T07:45:26.797Z,76.96
2018-06-12T07:46:31.952Z,77.11
2018-06-12T07:47:39.571Z,77.60
2018-06-12T07:48:45.035Z,77.47
2018-06-12T07:49:49.704Z,77.00
2018-06-12T07:50:59.604Z,77.44
2018-06-12T07:52:06.021Z,77.75
2018-06-12T07:53:11.255Z,77.99
2018-06-12T07:54:23.015Z,77.57
2018-06-12T07:55:28.474Z,77.41
2018-06-12T07:56:35.441Z,77.17
2018-06-12T07:57:40.342Z,77.59
2018-06-12T07:58:46.326Z,77.71
2018-06-12T07:59:51.671Z,77.86
2018-06-12T08:00:56.432Z,77.57
2018-06-12T08:02:01.253Z,77.36
2018-06-12T08:03:07.436Z,77.67
2018-06-12T08:04:12.425Z,77.33
2018-06-12T08:05:17.731Z,77.20
2018-06-12T08:06:22.456Z,76.63
2018-06-12T08:07:27.174Z,76.01
2018-06-12T08:08:32.293Z,75.61
2018-06-12T08:09:38.853Z,75.88
2018-06-12T08:10:43.554Z,75.47
2018-06-12T08:11:48.860Z,75.81
2018-06-12T08:12:53.964Z,75.65
2018-06-12T08:13:59.011Z,75.09
2018-06-12T08:15:06.085Z,75.12
2018-06-12T08:16:11.299Z,74.53
2018-06-12T08:17:17.470Z,74.62
2018-06-12T08:18:23.963Z,73.84
2018-06-12T08:19:30.134Z,73.42
2018-06-12T08:20:36.420Z,72.52
2018-06-12T08:21:43.194Z,71.73
2018-06-12T08:22:52.234Z,72.34
2018-06-12T08:23:59.543Z,72.03
2018-06-12T08:25:06.757Z,71.44
2018-06-12T08:26:13.330Z,71.54
2018-06-12T08:27:21.571Z,70.60
2018-06-12T08:28:33.997Z,70.19
2018-06-12T08:29:42.744Z,69.90
2018-06-12T08:30:49.317Z,70.22
2018-06-12T08:31:54.689Z,69.91
2018-06-12T08:33:02.809Z,69.31
2018-06-12T08:34:07.494Z,68.18
2018-06-12T08:35:13.845Z,68.15
2018-06-12T08:36:18.745Z,67.65
2018-06-12T08:37:26.059Z,66.97
2018-06-12T08:38:33.732Z,67.18
2018-06-12T08:39:39.121Z,66.95
2018-06-12T08:40:46.608Z,66.65
2018-06-12T08:41:52.094Z,65.81
2018-06-12T08:42:58.068Z,65.97
2018-06-12T08:44:07.035Z,65.66
2018-06-12T08:45:13.297Z,64.79
2018-06-12T08:46:19.163Z,65.13
2018-06-12T08:47:30.483Z,64.94
2018-06-12T08:48:35.188Z,64.35
2018-06-12T08:49:40.982Z,64.04
2018-06-12T08:50:49.270Z,64.11
2018-06-12T08:51:55.261Z,63.50
2018-06-12T08:52:59.986Z,63.74
2018-06-12T08:54:05.668Z,63.79
2018-06-12T08:55:10.390Z,63.98
2018-06-12T08:56:16.477Z,64.16
2018-06-12T08:57:21.648Z,64.30
2018-06-12T08:58:26.295Z,64.16
2018-06-12T08:59:31.042Z,64.16
2018-06-12T09:00:36.642Z,64.43
2018-06-12T09:01:41.343Z,64.65
2018-06-12T09:02:46.289Z,64.40
2018-06-12T09:03:54.820Z,63.88
2018-06-12T09:05:00.407Z,64.16
2018-06-12T09:06:05.497Z,64.04
2018-06-12T09:07:11.126Z,64.22
2018-06-12T09:08:15.858Z,64.17
2018-06-12T09:09:20.558Z,64.27
2018-06-12T09:10:25.584Z,64.09
2018-06-12T09:11:30.254Z,64.83
2018-06-12T09:12:36.545Z,64.77
2018-06-12T09:13:41.262Z,64.78
2018-06-12T09:14:46.086Z,64.76
2018-06-12T09:15:50.844Z,63.93
2018-06-12T09:16:55.529Z,63.91
2018-06-12T09:18:00.226Z,65.07
2018-06-12T09:19:05.501Z,64.62
2018-06-12T09:20:11.053Z,64.69
2018-06-12T09:21:15.758Z,64.40
2018-06-12T09:22:22.253Z,64.35
2018-06-12T09:23:28.397Z,64.92
2018-06-12T09:24:36.111Z,65.29
2018-06-12T09:25:41.867Z,64.21
2018-06-12T09:26:46.670Z,64.46
2018-06-12T09:27:52.486Z,63.97
2018-06-12T09:28:57.455Z,63.91
2018-06-12T09:30:03.936Z,64.12
2018-06-12T09:31:08.645Z,64.36
2018-06-12T09:32:13.478Z,63.99
2018-06-12T09:33:19.229Z,64.26
2018-06-12T09:34:24.903Z,63.77
2018-06-12T09:35:29.871Z,63.44
2018-06-12T09:36:35.202Z,63.66
2018-06-12T09:37:42.067Z,64.06
2018-06-12T09:38:46.843Z,64.66
2018-06-12T09:39:55.341Z,64.69
2018-06-12T09:41:00.406Z,63.76
2018-06-12T09:42:10.520Z,63.65
2018-06-12T09:43:16.147Z,64.03
2018-06-12T09:44:21.757Z,63.80
2018-06-12T09:45:26.380Z,63.58
2018-06-12T09:46:32.419Z,63.94
2018-06-12T09:47:37.709Z,64.09
2018-06-12T09:48:45.485Z,63.40
2018-06-12T09:49:58.789Z,63.79
2018-06-12T09:51:07.366Z,63.64
2018-06-12T09:52:16.508Z,63.93
2018-06-12T09:53:21.243Z,63.76
2018-06-12T09:54:27.517Z,64.40
2018-06-12T09:55:34.929Z,64.54
2018-06-12T09:56:40.227Z,64.63
2018-06-12T09:57:49.841Z,64.59
2018-06-12T09:58:54.950Z,64.18
2018-06-12T10:00:00.817Z,65.12
2018-06-12T10:01:10.814Z,64.56
2018-06-12T10:02:16.866Z,64.87
2018-06-12T10:03:23.364Z,64.28
2018-06-12T10:04:34.359Z,64.43
2018-06-12T10:05:41.232Z,64.40
2018-06-12T10:06:45.938Z,64.61
2018-06-12T10:07:52.570Z,64.49
2018-06-12T10:08:57.272Z,64.56
2018-06-12T10:10:02.797Z,65.26
2018-06-12T10:11:07.478Z,64.94
2018-06-12T10:12:12.265Z,65.15
2018-06-12T10:13:18.734Z,65.44
2018-06-12T10:14:23.828Z,64.83
2018-06-12T10:15:29.465Z,65.15
2018-06-12T10:16:35.652Z,64.75
2018-06-12T10:17:40.330Z,65.89
2018-06-12T10:18:46.420Z,65.03
2018-06-12T10:19:51.220Z,64.95
2018-06-12T10:20:56.264Z,65.62
2018-06-12T10:22:01.439Z,65.52
2018-06-12T10:23:06.610Z,65.62
2018-06-12T10:24:11.333Z,64.92
2018-06-12T10:25:16.141Z,65.37
2018-06-12T10:26:20.915Z,64.93
2018-06-12T10:27:27.021Z,65.12
2018-06-12T10:28:33.944Z,65.84
2018-06-12T10:29:38.598Z,66.31
2018-06-12T10:30:43.297Z,66.30
2018-06-12T10:31:48.023Z,64.61
2018-06-12T10:32:53.144Z,64.24
2018-06-12T10:33:58.445Z,64.77
2018-06-12T10:35:04.245Z,64.67
2018-06-12T10:36:09.590Z,64.58
2018-06-12T10:37:15.069Z,64.22
2018-06-12T10:38:22.554Z,65.17
2018-06-12T10:39:27.412Z,65.45
2018-06-12T10:40:33.343Z,65.41
2018-06-12T10:41:38.662Z,65.59
2018-06-12T10:42:44.352Z,66.29
2018-06-12T10:43:49.026Z,66.48
2018-06-12T10:44:56.673Z,66.92
2018-06-12T10:46:01.948Z,66.95
2018-06-12T10:47:09.072Z,67.17
2018-06-12T10:48:16.392Z,66.89
2018-06-12T10:49:24.431Z,67.48
2018-06-12T10:50:29.215Z,67.23
2018-06-12T10:51:33.856Z,67.07
2018-06-12T10:52:38.999Z,67.15
2018-06-12T10:53:44.793Z,67.76
2018-06-12T10:54:49.525Z,67.82
2018-06-12T10:55:58.121Z,67.81
2018-06-12T10:57:02.865Z,67.76
2018-06-12T10:58:07.619Z,67.67
2018-06-12T10:59:13.480Z,67.23
2018-06-12T11:00:18.770Z,67.61
2018-06-12T11:01:25.382Z,66.92
2018-06-12T11:02:30.180Z,67.90
2018-06-12T11:03:34.973Z,68.21
2018-06-12T11:04:42.264Z,68.53
2018-06-12T11:05:48.726Z,69.29
2018-06-12T11:06:53.459Z,69.09
2018-06-12T11:07:58.515Z,68.75
2018-06-12T11:09:10.203Z,67.83
2018-06-12T11:10:14.973Z,67.36
2018-06-12T11:11:19.700Z,67.37
2018-06-12T11:12:27.322Z,68.16
2018-06-12T11:13:32.957Z,67.61
2018-06-12T11:14:38.627Z,67.92
2018-06-12T11:15:46.461Z,67.80
2018-06-12T11:16:51.792Z,67.90
2018-06-12T11:17:56.321Z,67.39
2018-06-12T11:19:04.074Z,67.73
2018-06-12T11:20:08.816Z,67.46
2018-06-12T11:21:13.774Z,67.57
2018-06-12T11:22:20.241Z,67.73
2018-06-12T11:23:26.492Z,67.12
2018-06-12T11:24:31.310Z,66.95
2018-06-12T11:25:37.341Z,66.37
2018-06-12T11:26:47.705Z,66.42
2018-06-12T11:27:52.364Z,66.36
2018-06-12T11:28:57.561Z,66.47
2018-06-12T11:30:03.149Z,66.60
2018-06-12T11:31:09.072Z,66.09
2018-06-12T11:32:14.431Z,65.68
2018-06-12T11:33:21.670Z,66.14
2018-06-12T11:34:26.229Z,66.04
2018-06-12T11:35:33.435Z,66.29
2018-06-12T11:36:38.727Z,65.87
2018-06-12T11:37:43.511Z,66.06
2018-06-12T11:38:48.619Z,65.64
2018-06-12T11:39:53.836Z,66.38
2018-06-12T11:40:59.194Z,66.30
2018-06-12T11:42:04.988Z,66.65
2018-06-12T11:43:09.636Z,66.37
2018-06-12T11:44:15.809Z,66.33
2018-06-12T11:45:22.081Z,65.78
2018-06-12T11:46:29.295Z,65.60
2018-06-12T11:47:34.917Z,65.97
2018-06-12T11:48:39.505Z,65.28
2018-06-12T11:49:44.045Z,65.69
2018-06-12T11:50:48.593Z,65.67
2018-06-12T11:51:53.701Z,65.12
2018-06-12T11:52:59.617Z,64.70
2018-06-12T11:54:08.532Z,64.75
2018-06-12T11:55:13.331Z,65.05
2018-06-12T11:56:17.919Z,64.21
2018-06-12T11:57:22.832Z,63.94
2018-06-12T11:58:28.374Z,63.95
2018-06-12T11:59:37.491Z,64.21
2018-06-12T12:00:42.139Z,65.03
2018-06-12T12:01:46.828Z,64.68
2018-06-12T12:02:55.389Z,65.08
2018-06-12T12:04:02.431Z,64.48
2018-06-12T12:05:08.030Z,63.89
2018-06-12T12:06:12.888Z,63.99
2018-06-12T12:07:19.479Z,63.79
2018-06-12T12:08:24.262Z,63.73
2018-06-12T12:09:29.308Z,63.49
2018-06-12T12:10:35.112Z,63.76
2018-06-12T12:11:39.649Z,64.53
2018-06-12T12:12:46.749Z,63.93
2018-06-12T12:13:52.581Z,63.92
2018-06-12T12:14:57.254Z,63.90
2018-06-12T12:16:02.299Z,63.92
2018-06-12T12:17:08.360Z,63.75
2018-06-12T12:18:13.508Z,63.11
2018-06-12T12:19:18.417Z,63.28
2018-06-12T12:20:24.620Z,63.46
2018-06-12T12:21:30.452Z,63.37
2018-06-12T12:22:35.838Z,63.99
2018-06-12T12:23:42.391Z,63.30
2018-06-12T12:24:50.714Z,63.04
2018-06-12T12:25:55.267Z,62.73
2018-06-12T12:26:59.854Z,62.63
2018-06-12T12:28:05.452Z,62.13
2018-06-12T12:29:10.899Z,61.85
2018-06-12T12:30:16.879Z,61.61
2018-06-12T12:31:22.829Z,62.02
2018-06-12T12:32:28.975Z,61.41
2018-06-12T12:33:34.442Z,61.01
2018-06-12T12:34:40.180Z,60.83
2018-06-12T12:35:46.390Z,60.33
2018-06-12T12:36:52.909Z,60.42
2018-06-12T12:37:58.263Z,59.75
2018-06-12T12:39:03.025Z,59.91
2018-06-12T12:40:08.605Z,59.83
2018-06-12T12:41:13.830Z,59.37
2018-06-12T12:42:19.076Z,58.54
2018-06-12T12:43:24.208Z,58.52
2018-06-12T12:44:30.540Z,59.06
2018-06-12T12:45:35.967Z,58.99
2018-06-12T12:46:42.128Z,58.67
2018-06-12T12:47:51.589Z,58.02
2018-06-12T12:48:58.965Z,58.20
2018-06-12T12:50:04.075Z,58.18
2018-06-12T12:51:08.679Z,57.78
2018-06-12T12:52:13.284Z,57.66
2018-06-12T12:53:18.477Z,57.98
2018-06-12T12:54:29.264Z,57.95
2018-06-12T12:55:38.080Z,58.07
2018-06-12T12:56:44.638Z,58.40
2018-06-12T12:57:50.814Z,58.10
2018-06-12T12:59:00.452Z,58.60
2018-06-12T13:00:07.271Z,58.24
2018-06-12T13:02:23.997Z,58.37
2018-06-12T13:03:29.315Z,58.52
2018-06-12T13:04:34.618Z,58.57
2018-06-12T13:05:39.291Z,58.64
2018-06-12T13:06:43.917Z,58.35
2018-06-12T13:07:49.799Z,58.31
2018-06-12T13:08:56.148Z,58.73
2018-06-12T13:10:01.539Z,58.96
2018-06-12T13:11:07.690Z,59.32
2018-06-12T13:12:12.709Z,59.15
2018-06-12T13:13:17.419Z,58.78
2018-06-12T13:14:55.754Z,59.19
2018-06-12T13:16:04.019Z,59.77
2018-06-12T13:17:23.548Z,60.03
2018-06-12T13:18:35.602Z,59.77
2018-06-12T13:19:43.677Z,59.92
2018-06-12T13:20:48.772Z,59.61
2018-06-12T13:21:53.830Z,59.43
2018-06-12T13:22:59.466Z,58.97
2018-06-12T13:24:05.359Z,59.15
2018-06-12T13:25:10.795Z,58.68
2018-06-12T13:26:16.292Z,58.69
2018-06-12T13:27:24.563Z,58.84
2018-06-12T13:28:33.803Z,58.36
2018-06-12T13:29:40.172Z,58.23
2018-06-12T13:30:47.492Z,58.55
2018-06-12T13:31:55.888Z,58.77
2018-06-12T13:33:07.518Z,58.45
2018-06-12T13:34:13.255Z,58.48
2018-06-12T13:35:24.415Z,58.31
2018-06-12T13:36:30.444Z,58.55
2018-06-12T13:37:35.729Z,58.92
2018-06-12T13:38:40.399Z,59.04
2018-06-12T13:39:47.222Z,58.60
2018-06-12T13:40:54.295Z,58.25
2018-06-12T13:42:00.294Z,58.35
2018-06-12T13:49:08.354Z,58.57
2018-06-12T13:50:14.034Z,58.14
2018-06-12T13:51:20.690Z,58.21
2018-06-12T13:52:25.313Z,57.77
2018-06-12T13:53:33.035Z,58.03
2018-06-12T13:54:38.862Z,57.87
2018-06-12T13:55:46.837Z,57.85
2018-06-12T13:56:54.421Z,58.44
2018-06-12T13:58:01.527Z,58.09
2018-06-12T13:59:06.283Z,58.25
2018-06-12T14:00:12.250Z,58.08
2018-06-12T14:01:19.016Z,58.37
2018-06-12T14:02:25.440Z,57.58
2018-06-12T14:03:30.057Z,58.04
2018-06-12T14:04:37.875Z,57.97
2018-06-12T14:05:42.537Z,58.46
2018-06-12T14:06:47.472Z,58.96
2018-06-12T14:07:53.556Z,58.02
2018-06-12T14:09:00.049Z,58.52
2018-06-12T14:10:14.752Z,58.43
2018-06-12T14:11:19.503Z,58.35